KMCD

Mackinac Island Airport

Mackinac Island, Michigan, USA
METAR KMCD 140715Z AUTO 19006KT 140V200 7SM OVC014 01/M03 A3011 RMK AO2 T00101032
Observed Flight Rules
Dec-14 @ 07:15 UTC (27 minutes ago) Marginal Visual Flight Rules
Wind Visibility Clouds
190° at 6 knots 7 miles
  • Overcast at 1,400' AGL
Temperatures Readings
Current 1°C / 34°F
Dewpoint -3°C / 27°F
Humidity 75%
Altimeter 30.11" Hg
Pressure 1020 hPa
Elevation 226
METAR KMCD 140715Z AUTO 19006KT 140V200 7SM OVC014 01/M03 A3011 RMK AO2 T00101032
Observed Flight Rules
Dec-14 @ 07:15 UTC
(27 minutes ago)
MVFR
Wind Visibility
190° at 6 knots 7 miles
Clouds
  • Overcast at 1,400' AGL
Temperature Dewpoint
1°C / 34°F -3°C / 27°F
Humidity Altimeter Pressure
75% 30.11" Hg 1020 hPa